Roaming Rock Shores, Ohio
Current Conditions -  °F | °C
As of 10:53 AM on Thursday 29 Jan 2015 (Local Time) from KHZY Reporting Station
Overcast Overcast  
Wind Chill: 20°   Ceiling: 4400
Heat Index: 32°   Visibility: 10mi
Dew Point: 12°   Wind: 20mph
Humidity: 44%   Direction: 190°S
Pressure: 29.85"   Gusts: 28mph
Location:  41.6051°N, 80.867°W
Report Text: KHZY 291553Z AUTO 19017G24KT 10SM FEW022 SCT035 OVC044 00/M11 A2985 RMK AO2 PK WND 16026/1501 SLP120 T00001111
Loading
Personal Weather Stations






























Interactive Weather Map New forecast layout! Learn more

10-Day Weather Forecast

Advertisements
Track Severe Weather on mobile